createdAt,value
2016-11-17T00:00:08.562Z,1002.57
2016-11-17T00:01:38.220Z,1002.58
2016-11-17T00:02:53.723Z,1002.53
2016-11-17T00:04:08.097Z,1002.5
2016-11-17T00:05:23.121Z,1002.47
2016-11-17T00:06:37.708Z,1002.47
2016-11-17T00:07:52.660Z,1002.5
2016-11-17T00:09:07.738Z,1002.5
2016-11-17T00:10:22.327Z,1002.45
2016-11-17T00:11:37.175Z,1002.42
2016-11-17T00:13:07.234Z,1002.41
2016-11-17T00:14:22.230Z,1002.44
2016-11-17T00:15:37.084Z,1002.45
2016-11-17T00:16:52.483Z,1002.41
2016-11-17T00:18:07.883Z,1002.35
2016-11-17T00:19:37.414Z,1002.33
2016-11-17T00:20:52.916Z,1002.29
2016-11-17T00:22:07.457Z,1002.28
2016-11-17T00:28:33.198Z,1002.01
2016-11-17T00:29:47.811Z,1002.12
2016-11-17T00:31:02.342Z,1002.05
2016-11-17T00:32:17.183Z,1002.06
2016-11-17T00:33:32.762Z,1002.06
2016-11-17T00:34:47.473Z,1002.05
2016-11-17T00:36:02.229Z,1002.02
2016-11-17T00:37:16.831Z,1001.99
2016-11-17T00:38:34.132Z,1001.98
2016-11-17T00:39:49.377Z,1001.91
2016-11-17T00:43:18.294Z,1001.83
2016-11-17T00:44:32.772Z,1001.74
2016-11-17T00:45:47.969Z,1001.7
2016-11-17T00:47:02.636Z,1001.63
2016-11-17T00:48:17.570Z,1001.51
2016-11-17T00:49:32.402Z,1001.53
2016-11-17T00:50:47.429Z,1001.56
2016-11-17T00:52:02.260Z,1001.59
2016-11-17T00:53:17.091Z,1001.64
2016-11-17T00:54:31.999Z,1001.7
2016-11-17T00:55:46.858Z,1001.72
2016-11-17T00:57:01.439Z,1001.71
2016-11-17T00:58:16.451Z,1001.76
2016-11-17T00:59:30.872Z,1001.78
2016-11-17T01:00:45.683Z,1001.79
2016-11-17T01:02:00.220Z,1001.8
2016-11-17T01:03:15.079Z,1001.77
2016-11-17T01:04:30.364Z,1001.75
2016-11-17T01:05:45.181Z,1001.75
2016-11-17T01:06:59.733Z,1001.69
2016-11-17T01:08:14.741Z,1001.69
2016-11-17T01:09:30.340Z,1001.63
2016-11-17T01:10:45.236Z,1001.62
2016-11-17T01:11:59.859Z,1001.63
2016-11-17T01:13:14.438Z,1001.58
2016-11-17T01:14:29.016Z,1001.59
2016-11-17T01:15:44.663Z,1001.61
2016-11-17T01:16:59.499Z,1001.65
2016-11-17T01:18:13.968Z,1001.64
2016-11-17T01:19:28.816Z,1001.63
2016-11-17T01:20:43.373Z,1001.6
2016-11-17T01:21:58.149Z,1001.64
2016-11-17T01:23:13.125Z,1001.64
2016-11-17T01:24:27.822Z,1001.64
2016-11-17T01:25:42.331Z,1001.71
2016-11-17T01:26:57.038Z,1001.69
2016-11-17T01:28:11.808Z,1001.64
2016-11-17T01:29:26.979Z,1001.64
2016-11-17T01:30:41.667Z,1001.67
2016-11-17T01:31:56.487Z,1001.65
2016-11-17T01:33:11.594Z,1001.63
2016-11-17T01:34:26.297Z,1001.64
2016-11-17T01:35:41.570Z,1001.61
2016-11-17T01:36:56.437Z,1001.59
2016-11-17T01:38:11.691Z,1001.59
2016-11-17T01:39:41.535Z,1001.56
2016-11-17T01:42:26.210Z,1001.47
2016-11-17T01:43:55.488Z,1001.49
2016-11-17T01:47:39.406Z,1001.47
2016-11-17T01:48:54.023Z,1001.46
2016-11-17T01:50:08.523Z,1001.48
2016-11-17T01:51:23.032Z,1001.52
2016-11-17T01:52:37.716Z,1001.5
2016-11-17T01:53:53.187Z,1001.52
2016-11-17T01:55:08.048Z,1001.47
2016-11-17T01:56:22.566Z,1001.44
2016-11-17T01:57:37.097Z,1001.44
2016-11-17T01:58:54.448Z,1001.41
2016-11-17T02:00:09.799Z,1001.4
2016-11-17T02:01:24.764Z,1001.43
2016-11-17T02:02:39.971Z,1001.41
2016-11-17T02:03:54.377Z,1001.37
2016-11-17T02:05:08.885Z,1001.31
2016-11-17T02:06:23.750Z,1001.34
2016-11-17T02:07:38.560Z,1001.24
2016-11-17T02:08:53.658Z,1001.21
2016-11-17T02:10:08.242Z,1001.2
2016-11-17T02:11:37.417Z,1001.12
2016-11-17T02:12:52.699Z,1001.09
2016-11-17T02:14:07.276Z,1001.11
2016-11-17T02:15:22.304Z,1001.13
2016-11-17T02:16:37.113Z,1001.07
2016-11-17T02:17:52.192Z,1001.08
2016-11-17T02:19:07.928Z,1001.09
2016-11-17T02:20:23.393Z,1001.09
2016-11-17T02:21:38.030Z,1001.01
2016-11-17T02:22:52.626Z,1001.02
2016-11-17T02:24:06.911Z,1001.01
2016-11-17T02:25:22.537Z,1001.03
2016-11-17T02:26:37.125Z,1001
2016-11-17T02:27:52.303Z,1000.96
2016-11-17T02:29:07.301Z,1000.99
2016-11-17T02:30:21.877Z,1000.95
2016-11-17T02:31:37.112Z,1000.9
2016-11-17T02:32:51.702Z,1000.81
2016-11-17T02:34:06.356Z,1000.83
2016-11-17T02:35:21.518Z,1000.77
2016-11-17T02:36:36.140Z,1000.77
2016-11-17T02:37:51.815Z,1000.78
2016-11-17T02:39:07.230Z,1000.73
2016-11-17T02:40:22.061Z,1000.72
2016-11-17T02:41:37.052Z,1000.69
2016-11-17T02:42:51.702Z,1000.61
2016-11-17T02:44:07.407Z,1000.63
2016-11-17T02:45:22.358Z,1000.64
2016-11-17T02:46:37.241Z,1000.58
2016-11-17T02:47:52.065Z,1000.56
2016-11-17T02:49:06.921Z,1000.55
2016-11-17T02:50:22.504Z,1000.54
2016-11-17T02:51:52.079Z,1000.59
2016-11-17T02:53:06.963Z,1000.56
2016-11-17T02:54:21.573Z,1000.5
2016-11-17T02:55:36.644Z,1000.5
2016-11-17T02:56:51.562Z,1000.48
2016-11-17T02:58:06.844Z,1000.47
2016-11-17T02:59:21.460Z,1000.49
2016-11-17T03:00:36.521Z,1000.5
2016-11-17T03:01:52.591Z,1000.42
2016-11-17T03:03:07.960Z,1000.4
2016-11-17T03:04:22.383Z,1000.33
2016-11-17T03:05:36.980Z,1000.31
2016-11-17T03:06:51.653Z,1000.28
2016-11-17T03:08:06.777Z,1000.21
2016-11-17T03:09:22.244Z,1000.22
2016-11-17T03:10:42.861Z,1000.24
2016-11-17T03:11:57.654Z,1000.24
2016-11-17T03:13:12.338Z,1000.2
2016-11-17T03:14:27.810Z,1000.19
2016-11-17T03:15:42.628Z,1000.17
2016-11-17T03:16:59.592Z,1000.14
2016-11-17T03:18:14.077Z,1000.15
2016-11-17T03:19:29.006Z,1000.1
2016-11-17T03:20:44.098Z,1000.1
2016-11-17T03:21:59.048Z,1000.08
2016-11-17T03:23:13.772Z,1000.08
2016-11-17T03:24:28.193Z,1000.09
2016-11-17T03:25:42.678Z,1000.06
2016-11-17T03:26:57.981Z,1000.05
2016-11-17T03:28:12.787Z,1000.04
2016-11-17T03:29:27.093Z,1000
2016-11-17T03:30:41.708Z,999.99
2016-11-17T03:31:56.034Z,1000.02
2016-11-17T03:33:11.178Z,999.94
2016-11-17T03:34:26.002Z,999.95
2016-11-17T03:35:40.393Z,999.99
2016-11-17T03:36:55.393Z,999.99
2016-11-17T03:38:09.960Z,999.97
2016-11-17T03:39:25.494Z,999.93
2016-11-17T03:40:40.405Z,999.96
2016-11-17T03:41:55.411Z,999.95
2016-11-17T03:43:09.965Z,999.95
2016-11-17T03:44:24.228Z,999.92
2016-11-17T03:45:39.103Z,999.9
2016-11-17T03:46:53.958Z,999.9
2016-11-17T03:48:23.479Z,999.86
2016-11-17T03:49:38.322Z,999.9
2016-11-17T03:50:53.528Z,999.83
2016-11-17T03:56:34.909Z,999.82
2016-11-17T03:57:49.475Z,999.83
2016-11-17T03:59:04.965Z,999.73
2016-11-17T04:00:19.572Z,999.7
2016-11-17T04:01:34.544Z,999.7
2016-11-17T04:02:49.383Z,999.66
2016-11-17T04:04:03.868Z,999.63
2016-11-17T04:05:18.753Z,999.62
2016-11-17T04:06:33.616Z,999.64
2016-11-17T04:09:32.851Z,999.55
2016-11-17T04:10:48.401Z,999.58
2016-11-17T04:12:03.031Z,999.56
2016-11-17T04:13:17.389Z,999.55
2016-11-17T04:14:32.498Z,999.54
2016-11-17T04:15:47.613Z,999.46
2016-11-17T04:17:02.404Z,999.42
2016-11-17T04:18:16.753Z,999.48
2016-11-17T04:19:46.628Z,999.52
2016-11-17T04:21:01.541Z,999.48
2016-11-17T04:22:16.160Z,999.46
2016-11-17T04:23:30.763Z,999.4
2016-11-17T04:25:00.400Z,999.37
2016-11-17T04:26:15.835Z,999.43
2016-11-17T04:27:30.138Z,999.43
2016-11-17T04:31:42.049Z,999.27
2016-11-17T04:32:57.215Z,999.21
2016-11-17T04:34:12.388Z,999.29
2016-11-17T04:35:27.022Z,999.32
2016-11-17T04:36:41.742Z,999.28
2016-11-17T04:40:27.924Z,999.34
2016-11-17T04:41:52.094Z,999.37
2016-11-17T04:43:28.142Z,999.33
2016-11-17T04:44:53.810Z,999.32
2016-11-17T04:46:31.321Z,999.24
2016-11-17T04:47:48.319Z,999.26
2016-11-17T04:49:04.227Z,999.31
2016-11-17T04:50:18.833Z,999.25
2016-11-17T04:51:34.315Z,999.3
2016-11-17T04:52:49.235Z,999.34
2016-11-17T04:54:04.276Z,999.17
2016-11-17T04:55:19.341Z,999.23
2016-11-17T04:56:33.935Z,999.22
2016-11-17T04:57:48.801Z,999.15
2016-11-17T04:59:04.129Z,999.13
2016-11-17T05:00:18.801Z,999.15
2016-11-17T05:01:33.866Z,999.14
2016-11-17T05:02:48.513Z,999.13
2016-11-17T05:04:03.845Z,999.16
2016-11-17T05:05:19.027Z,999.12
2016-11-17T05:06:33.690Z,999.1
2016-11-17T05:07:48.545Z,999.12
2016-11-17T05:09:03.586Z,999.1
2016-11-17T05:10:18.823Z,999.11
2016-11-17T05:11:34.568Z,999.12
2016-11-17T05:12:49.686Z,999.06
2016-11-17T05:14:04.554Z,999.09
2016-11-17T05:15:19.237Z,998.98
2016-11-17T05:16:34.693Z,999.02
2016-11-17T05:17:50.204Z,999.07
2016-11-17T05:19:05.856Z,999.05
2016-11-17T05:20:20.918Z,999.03
2016-11-17T05:21:36.021Z,999.05
2016-11-17T05:22:50.832Z,999.05
2016-11-17T05:24:06.382Z,999.05
2016-11-17T05:25:21.276Z,999
2016-11-17T05:26:35.850Z,998.95
2016-11-17T05:27:50.522Z,998.93
2016-11-17T05:29:05.678Z,998.91
2016-11-17T05:30:20.351Z,998.88
2016-11-17T05:31:35.849Z,998.85
2016-11-17T05:32:51.979Z,998.8
2016-11-17T05:34:21.535Z,998.81
2016-11-17T05:35:37.493Z,998.75
2016-11-17T05:36:52.323Z,998.76
2016-11-17T05:38:07.616Z,998.74
2016-11-17T05:39:23.040Z,998.81
2016-11-17T05:40:37.561Z,998.77
2016-11-17T05:41:52.356Z,998.79
2016-11-17T05:43:06.692Z,998.78
2016-11-17T05:44:21.625Z,998.78
2016-11-17T05:45:36.646Z,998.76
2016-11-17T05:46:51.289Z,998.74
2016-11-17T05:48:06.664Z,998.83
2016-11-17T05:49:36.101Z,998.77
2016-11-17T05:50:51.278Z,998.73
2016-11-17T05:52:06.237Z,998.71
2016-11-17T05:53:21.180Z,998.68
2016-11-17T05:54:35.835Z,998.63
2016-11-17T05:55:51.747Z,998.59
2016-11-17T05:57:06.652Z,998.66
2016-11-17T05:58:21.739Z,998.58
2016-11-17T05:59:39.006Z,998.69
2016-11-17T06:00:53.811Z,998.7
2016-11-17T06:02:08.963Z,998.62
2016-11-17T06:03:23.940Z,998.6
2016-11-17T06:04:53.301Z,998.62
2016-11-17T06:06:08.561Z,998.55
2016-11-17T06:07:23.508Z,998.59
2016-11-17T06:08:38.185Z,998.57
2016-11-17T06:09:52.786Z,998.58
2016-11-17T06:11:07.796Z,998.53
2016-11-17T06:12:22.450Z,998.56
2016-11-17T06:13:37.010Z,998.55
2016-11-17T06:14:51.801Z,998.55
2016-11-17T06:16:06.387Z,998.46
2016-11-17T06:17:21.283Z,998.52
2016-11-17T06:18:36.198Z,998.53
2016-11-17T06:19:51.024Z,998.48
2016-11-17T06:21:06.250Z,998.48
2016-11-17T06:22:20.962Z,998.45
2016-11-17T06:23:36.249Z,998.44
2016-11-17T06:24:50.921Z,998.39
2016-11-17T06:26:05.501Z,998.43
2016-11-17T06:27:20.207Z,998.45
2016-11-17T06:28:34.921Z,998.45
2016-11-17T06:29:49.645Z,998.44
2016-11-17T06:31:04.218Z,998.39
2016-11-17T06:32:18.710Z,998.45
2016-11-17T06:33:33.880Z,998.42
2016-11-17T06:34:48.690Z,998.4
2016-11-17T06:36:03.362Z,998.37
2016-11-17T06:40:15.602Z,998.39
2016-11-17T06:41:30.263Z,998.37
2016-11-17T06:42:45.390Z,998.35
2016-11-17T06:44:00.648Z,998.41
2016-11-17T06:45:15.899Z,998.42
2016-11-17T06:46:30.361Z,998.43
2016-11-17T06:47:45.326Z,998.41
2016-11-17T06:49:00.279Z,998.5
2016-11-17T06:50:15.166Z,998.4
2016-11-17T06:51:30.518Z,998.3
2016-11-17T06:52:45.018Z,998.39
2016-11-17T06:54:00.331Z,998.43
2016-11-17T06:55:15.554Z,998.49
2016-11-17T06:56:30.391Z,998.45
2016-11-17T06:57:59.821Z,998.36
2016-11-17T06:59:14.668Z,998.4
2016-11-17T07:00:29.571Z,998.34
2016-11-17T07:01:45.401Z,998.41
2016-11-17T07:03:01.096Z,998.35
2016-11-17T07:04:16.520Z,998.33
2016-11-17T07:05:30.885Z,998.4
2016-11-17T07:06:45.646Z,998.36
2016-11-17T07:08:00.524Z,998.42
2016-11-17T07:09:15.046Z,998.39
2016-11-17T07:10:29.628Z,998.3
2016-11-17T07:11:44.624Z,998.45
2016-11-17T07:12:59.594Z,998.41
2016-11-17T07:14:14.718Z,998.46
2016-11-17T07:15:29.439Z,998.37
2016-11-17T07:16:45.124Z,998.46
2016-11-17T07:18:00.083Z,998.44
2016-11-17T07:19:17.343Z,998.43
2016-11-17T07:20:31.673Z,998.36
2016-11-17T07:21:46.392Z,998.45
2016-11-17T07:23:16.480Z,998.46
2016-11-17T07:24:31.633Z,998.52
2016-11-17T07:25:46.176Z,998.63
2016-11-17T07:27:00.852Z,998.61
2016-11-17T07:28:15.532Z,998.6
2016-11-17T07:29:30.343Z,998.6
2016-11-17T07:30:45.737Z,998.57
2016-11-17T07:32:00.346Z,998.61
2016-11-17T07:33:15.167Z,998.58
2016-11-17T07:34:30.517Z,998.6
2016-11-17T07:35:44.958Z,998.63
2016-11-17T07:36:59.552Z,998.7
2016-11-17T07:38:14.922Z,998.66
2016-11-17T07:39:29.922Z,998.76
2016-11-17T07:40:45.325Z,998.77
2016-11-17T07:42:00.328Z,998.8
2016-11-17T07:43:15.753Z,998.77
2016-11-17T07:44:30.783Z,998.86
2016-11-17T07:45:45.738Z,998.87
2016-11-17T07:47:00.707Z,998.79
2016-11-17T07:48:44.841Z,998.81
2016-11-17T07:49:59.836Z,998.82
2016-11-17T07:51:14.531Z,998.9
2016-11-17T07:52:29.512Z,998.87
2016-11-17T07:53:44.143Z,998.88
2016-11-17T07:54:58.477Z,998.91
2016-11-17T07:56:13.741Z,998.92
2016-11-17T07:57:28.848Z,998.92
2016-11-17T07:58:44.627Z,998.91
2016-11-17T07:59:59.295Z,998.93
2016-11-17T08:01:14.008Z,999
2016-11-17T08:02:29.085Z,999.02
2016-11-17T08:03:43.502Z,999.05
2016-11-17T08:04:59.009Z,999.04
2016-11-17T08:06:13.798Z,998.96
2016-11-17T08:07:28.304Z,998.95
2016-11-17T08:08:43.407Z,998.96
2016-11-17T08:09:58.908Z,998.85
2016-11-17T08:11:14.428Z,998.92
2016-11-17T08:12:29.399Z,998.89
2016-11-17T08:13:44.191Z,998.88
2016-11-17T08:14:59.216Z,998.87
2016-11-17T08:16:14.223Z,998.87
2016-11-17T08:17:29.242Z,998.9
2016-11-17T08:18:44.259Z,998.87
2016-11-17T08:19:59.357Z,998.91
2016-11-17T08:21:14.516Z,998.79
2016-11-17T08:22:29.217Z,998.92
2016-11-17T08:23:44.164Z,998.91
2016-11-17T08:24:59.514Z,998.84
2016-11-17T08:26:14.124Z,998.84
2016-11-17T08:27:29.392Z,998.92
2016-11-17T08:28:44.256Z,998.83
2016-11-17T08:29:59.606Z,998.88
2016-11-17T08:31:14.744Z,998.88
2016-11-17T08:32:29.282Z,998.92
2016-11-17T08:33:44.795Z,998.88
2016-11-17T08:34:59.621Z,998.82
2016-11-17T08:36:15.412Z,998.79
2016-11-17T08:37:33.476Z,998.84
2016-11-17T08:38:48.378Z,998.83
2016-11-17T08:40:18.156Z,998.77
2016-11-17T08:41:33.474Z,998.7
2016-11-17T08:42:48.625Z,998.69
2016-11-17T08:44:03.294Z,998.69
2016-11-17T08:45:18.064Z,998.71
2016-11-17T08:46:32.846Z,998.69
2016-11-17T08:47:47.428Z,998.68
2016-11-17T08:49:03.215Z,998.62
2016-11-17T08:50:18.213Z,998.64
2016-11-17T08:51:33.377Z,998.62
2016-11-17T08:52:48.482Z,998.62
2016-11-17T08:54:03.201Z,998.57
2016-11-17T08:55:18.076Z,998.61
2016-11-17T08:56:32.918Z,998.59
2016-11-17T08:57:47.570Z,998.56
2016-11-17T08:59:02.431Z,998.54
2016-11-17T09:00:17.250Z,998.57
2016-11-17T09:01:31.867Z,998.59
2016-11-17T09:02:46.448Z,998.43
2016-11-17T09:04:01.052Z,998.5
2016-11-17T09:05:15.945Z,998.46
2016-11-17T09:06:30.402Z,998.43
2016-11-17T09:07:45.845Z,998.42
2016-11-17T09:09:00.555Z,998.46
2016-11-17T09:10:15.329Z,998.52
2016-11-17T09:11:30.337Z,998.44
2016-11-17T09:12:44.743Z,998.4
2016-11-17T09:13:59.744Z,998.4
2016-11-17T09:15:14.385Z,998.4
2016-11-17T09:16:29.376Z,998.32
2016-11-17T09:17:44.556Z,998.38
2016-11-17T09:18:59.548Z,998.34
2016-11-17T09:20:13.949Z,998.34
2016-11-17T09:21:28.950Z,998.33
2016-11-17T09:22:43.905Z,998.31
2016-11-17T09:29:39.473Z,998.28
2016-11-17T09:30:54.287Z,998.34
2016-11-17T09:32:09.888Z,998.32
2016-11-17T09:33:24.776Z,998.26
2016-11-17T09:34:39.217Z,998.32
2016-11-17T09:35:54.630Z,998.3
2016-11-17T09:39:23.552Z,998.32
2016-11-17T09:40:38.456Z,998.34
2016-11-17T09:41:52.966Z,998.36
2016-11-17T09:43:08.135Z,998.37
2016-11-17T09:44:23.176Z,998.37
2016-11-17T09:45:38.542Z,998.31
2016-11-17T09:52:47.803Z,998.27
2016-11-17T09:54:03.193Z,998.25
2016-11-17T09:55:18.203Z,998.26
2016-11-17T09:56:33.115Z,998.29
2016-11-17T09:58:02.849Z,998.23
2016-11-17T09:59:18.276Z,998.22
2016-11-17T10:00:33.055Z,998.24
2016-11-17T10:01:48.169Z,998.16
2016-11-17T10:03:05.590Z,998.19
2016-11-17T10:04:20.242Z,998.21
2016-11-17T10:05:35.378Z,998.19
2016-11-17T10:06:50.823Z,998.13
2016-11-17T10:08:06.050Z,998.1
2016-11-17T10:09:36.087Z,998.11
2016-11-17T10:10:50.996Z,998.16
2016-11-17T10:12:20.485Z,998.14
2016-11-17T10:13:35.457Z,998.13
2016-11-17T10:14:50.417Z,998.08
2016-11-17T10:16:05.421Z,998.12
2016-11-17T10:17:19.802Z,998.15
2016-11-17T10:18:34.437Z,998.05
2016-11-17T10:19:49.898Z,998.01
2016-11-17T10:21:05.281Z,998
2016-11-17T10:22:20.828Z,998.01
2016-11-17T10:23:35.610Z,997.93
2016-11-17T10:24:50.065Z,997.97
2016-11-17T10:26:05.591Z,998
2016-11-17T10:27:20.665Z,998.02
2016-11-17T10:28:36.361Z,998.04
2016-11-17T10:29:51.182Z,998.04
2016-11-17T10:31:05.863Z,997.97
2016-11-17T10:32:21.381Z,998.01
2016-11-17T10:33:50.700Z,997.9
2016-11-17T10:35:05.699Z,997.9
2016-11-17T10:37:50.405Z,997.86
2016-11-17T10:39:05.545Z,997.87
2016-11-17T10:40:20.517Z,997.8
2016-11-17T10:41:35.633Z,997.79
2016-11-17T10:42:50.232Z,997.78
2016-11-17T10:44:05.467Z,997.75
2016-11-17T10:45:20.548Z,997.73
2016-11-17T10:46:49.686Z,997.74
2016-11-17T10:48:04.220Z,997.7
2016-11-17T10:49:19.229Z,997.78
2016-11-17T10:50:33.625Z,997.86
2016-11-17T10:51:48.481Z,997.72
2016-11-17T10:53:03.210Z,997.76
2016-11-17T10:54:18.050Z,997.72
2016-11-17T10:55:32.917Z,997.72
2016-11-17T10:56:47.623Z,997.6
2016-11-17T10:58:03.014Z,997.58
2016-11-17T10:59:17.619Z,997.63
2016-11-17T11:00:32.310Z,997.68
2016-11-17T11:02:01.966Z,997.66
2016-11-17T11:03:17.013Z,997.7
2016-11-17T11:04:31.862Z,997.68
2016-11-17T11:05:47.264Z,997.66
2016-11-17T11:07:01.679Z,997.6
2016-11-17T11:08:16.318Z,997.65
2016-11-17T11:09:32.064Z,997.54
2016-11-17T11:10:47.152Z,997.58
2016-11-17T11:12:01.909Z,997.5
2016-11-17T11:13:16.373Z,997.45
2016-11-17T11:14:30.947Z,997.48
2016-11-17T11:15:46.543Z,997.42
2016-11-17T11:17:01.911Z,997.38
2016-11-17T11:18:17.304Z,997.34
2016-11-17T11:19:31.906Z,997.35
2016-11-17T11:20:46.623Z,997.33
2016-11-17T11:22:03.527Z,997.35
2016-11-17T11:23:33.640Z,997.25
2016-11-17T11:24:48.516Z,997.19
2016-11-17T11:26:02.968Z,997.2
2016-11-17T11:27:17.860Z,997.22
2016-11-17T11:28:32.751Z,997.13
2016-11-17T11:29:48.775Z,997.14
2016-11-17T11:31:03.551Z,997.07
2016-11-17T11:32:17.960Z,997.11
2016-11-17T11:33:33.501Z,997.09
2016-11-17T11:34:48.626Z,997.08
2016-11-17T11:36:03.249Z,997.03
2016-11-17T11:37:17.828Z,997.04
2016-11-17T11:38:32.154Z,997.01
2016-11-17T11:39:47.235Z,997.12
2016-11-17T11:41:02.065Z,997.08
2016-11-17T11:42:16.559Z,997.12
2016-11-17T11:43:31.071Z,997.13
2016-11-17T11:44:45.699Z,997.09
2016-11-17T11:46:01.768Z,997.02
2016-11-17T11:47:16.100Z,997
2016-11-17T11:48:30.566Z,997.05
2016-11-17T11:49:45.654Z,997.06
2016-11-17T11:51:00.315Z,997.04
2016-11-17T11:52:15.033Z,997.14
2016-11-17T11:53:29.916Z,997.14
2016-11-17T11:54:44.698Z,997.12
2016-11-17T11:55:59.935Z,997.08
2016-11-17T11:57:14.575Z,997.05
2016-11-17T11:58:29.277Z,997.11
2016-11-17T11:59:44.106Z,997.06
2016-11-17T12:00:59.438Z,997.06
2016-11-17T12:02:14.676Z,997
2016-11-17T12:03:29.441Z,997.05
2016-11-17T12:04:44.281Z,997.11
2016-11-17T12:05:59.071Z,997.02
2016-11-17T12:07:13.657Z,997.08
2016-11-17T12:08:28.253Z,997.17
2016-11-17T12:09:42.937Z,997.03
2016-11-17T12:10:58.101Z,997.15
2016-11-17T12:12:13.495Z,997.24
2016-11-17T12:13:28.476Z,997.09
2016-11-17T12:14:43.570Z,997.08
2016-11-17T12:15:58.733Z,997.11
2016-11-17T12:17:13.447Z,996.9
2016-11-17T12:18:28.585Z,997.12
2016-11-17T12:19:43.477Z,997.09
2016-11-17T12:20:58.366Z,997.04
